createdAt,value
2022-08-14T00:00:35.800Z,15.52
2022-08-14T00:01:35.956Z,15.52
2022-08-14T00:02:36.078Z,15.599999
2022-08-14T00:03:36.167Z,15.599999
2022-08-14T00:04:42.095Z,15.52
2022-08-14T00:05:36.411Z,15.2
2022-08-14T00:06:36.516Z,15.44
2022-08-14T00:07:41.760Z,15.28
2022-08-14T00:08:43.689Z,15.2
2022-08-14T00:09:40.116Z,15.04
2022-08-14T00:10:50.562Z,14.799999
2022-08-14T00:11:37.174Z,14.88
2022-08-14T00:12:37.833Z,14.799999
2022-08-14T00:13:37.376Z,14.719999
2022-08-14T00:14:37.481Z,14.639999
2022-08-14T00:15:44.042Z,14.799999
2022-08-14T00:16:40.301Z,14.799999
2022-08-14T00:17:47.699Z,14.639999
2022-08-14T00:19:05.810Z,14.4
2022-08-14T00:19:38.191Z,14.639999
2022-08-14T00:20:41.332Z,14.799999
2022-08-14T00:21:38.462Z,14.88
2022-08-14T00:22:44.772Z,14.88
2022-08-14T00:23:38.648Z,15.04
2022-08-14T00:24:38.798Z,15.04
2022-08-14T00:25:41.954Z,14.88
2022-08-14T00:26:39.107Z,14.88
2022-08-14T00:27:39.250Z,15.12
2022-08-14T00:28:39.354Z,15.2
2022-08-14T00:29:40.213Z,15.2
2022-08-14T00:30:42.766Z,15.04
2022-08-14T00:31:44.114Z,15.2
2022-08-14T00:32:50.426Z,15.28
2022-08-14T00:33:51.283Z,15.28
2022-08-14T00:34:46.789Z,15.44
2022-08-14T00:36:34.469Z,15.2
2022-08-14T00:37:40.472Z,15.44
2022-08-14T00:38:40.602Z,15.28
2022-08-14T00:39:40.777Z,15.2
2022-08-14T00:40:40.837Z,15.2
2022-08-14T00:41:42.274Z,15.2
2022-08-14T00:42:53.049Z,15.04
2022-08-14T00:43:41.770Z,15.12
2022-08-14T00:44:41.341Z,15.04
2022-08-14T00:45:41.441Z,15.12
2022-08-14T00:46:41.542Z,15.12
2022-08-14T00:47:43.142Z,15.12
2022-08-14T00:48:41.790Z,15.04
2022-08-14T00:49:42.874Z,15.12
2022-08-14T00:50:42.008Z,15.2
2022-08-14T00:51:42.125Z,15.28
2022-08-14T00:52:42.350Z,15.2
2022-08-14T00:53:42.898Z,15.2
2022-08-14T00:54:42.508Z,15.2
2022-08-14T00:55:42.760Z,15.2
2022-08-14T00:56:42.789Z,15.04
2022-08-14T00:57:42.913Z,15.04
2022-08-14T00:58:45.020Z,14.799999
2022-08-14T00:59:43.164Z,14.799999
2022-08-14T01:00:47.312Z,14.88
2022-08-14T01:01:43.414Z,15.28
2022-08-14T01:02:43.698Z,15.28
2022-08-14T01:03:43.628Z,15.679999
2022-08-14T01:04:52.569Z,15.679999
2022-08-14T01:05:51.138Z,15.52
2022-08-14T01:06:44.043Z,15.52
2022-08-14T01:07:47.542Z,15.44
2022-08-14T01:08:52.547Z,15.44
2022-08-14T01:09:44.336Z,15.28
2022-08-14T01:10:44.438Z,15.28
2022-08-14T01:11:45.088Z,15.2
2022-08-14T01:12:44.782Z,15.2
2022-08-14T01:13:44.789Z,15.12
2022-08-14T01:14:44.893Z,15.2
2022-08-14T01:15:55.110Z,15.2
2022-08-14T01:16:45.129Z,15.2
2022-08-14T01:17:45.912Z,15.04
2022-08-14T01:18:45.352Z,14.88
2022-08-14T01:19:46.656Z,14.799999
2022-08-14T01:20:45.610Z,14.799999
2022-08-14T01:21:46.693Z,14.799999
2022-08-14T01:22:45.839Z,14.799999
2022-08-14T01:23:46.515Z,14.88
2022-08-14T01:24:46.071Z,14.799999
2022-08-14T01:25:46.243Z,14.88
2022-08-14T01:26:47.387Z,14.799999
2022-08-14T01:27:56.763Z,15.04
2022-08-14T01:28:56.708Z,14.799999
2022-08-14T01:29:59.509Z,14.799999
2022-08-14T01:30:46.831Z,14.799999
2022-08-14T01:31:50.158Z,14.799999
2022-08-14T01:32:51.025Z,14.799999
2022-08-14T01:34:00.645Z,14.719999
2022-08-14T01:36:04.246Z,14.799999
2022-08-14T01:36:47.541Z,14.799999
2022-08-14T01:37:54.953Z,14.88
2022-08-14T01:38:48.914Z,14.88
2022-08-14T01:39:47.941Z,14.88
2022-08-14T01:40:48.041Z,14.88
2022-08-14T01:41:48.145Z,14.88
2022-08-14T01:42:48.372Z,14.88
2022-08-14T01:43:56.211Z,14.799999
2022-08-14T01:44:49.844Z,14.88
2022-08-14T01:45:48.868Z,14.88
2022-08-14T01:46:48.755Z,14.799999
2022-08-14T01:47:48.859Z,14.719999
2022-08-14T01:48:49.007Z,14.719999
2022-08-14T01:49:59.179Z,14.799999
2022-08-14T01:50:49.208Z,14.799999
2022-08-14T01:51:49.368Z,14.719999
2022-08-14T01:52:59.497Z,14.719999
2022-08-14T01:53:50.508Z,14.799999
2022-08-14T01:54:57.934Z,14.799999
2022-08-14T01:55:49.876Z,14.799999
2022-08-14T01:56:49.975Z,14.799999
2022-08-14T01:58:01.139Z,14.799999
2022-08-14T01:58:57.705Z,14.799999
2022-08-14T01:59:50.335Z,14.88
2022-08-14T02:00:50.479Z,14.88
2022-08-14T02:01:51.632Z,14.799999
2022-08-14T02:02:52.703Z,14.799999
2022-08-14T02:03:53.499Z,14.719999
2022-08-14T02:04:56.412Z,14.719999
2022-08-14T02:05:51.042Z,14.719999
2022-08-14T02:06:51.144Z,14.719999
2022-08-14T02:07:53.611Z,14.639999
2022-08-14T02:08:52.736Z,14.639999
2022-08-14T02:09:55.738Z,14.639999
2022-08-14T02:10:51.653Z,14.48
2022-08-14T02:11:54.349Z,14.48
2022-08-14T02:12:54.363Z,14.639999
2022-08-14T02:13:52.075Z,14.719999
2022-08-14T02:15:00.785Z,14.719999
2022-08-14T02:15:52.363Z,14.799999
2022-08-14T02:16:52.536Z,14.639999
2022-08-14T02:17:52.613Z,14.639999
2022-08-14T02:18:52.714Z,14.639999
2022-08-14T02:19:52.822Z,14.48
2022-08-14T02:20:52.921Z,14.32
2022-08-14T02:21:53.020Z,14.32
2022-08-14T02:22:53.618Z,14.08
2022-08-14T02:23:53.748Z,14.08
2022-08-14T02:24:53.425Z,14.32
2022-08-14T02:25:54.460Z,14.32
2022-08-14T02:26:58.539Z,14.32
2022-08-14T02:28:56.859Z,14.24
2022-08-14T02:29:56.059Z,14
2022-08-14T02:30:54.242Z,13.84
2022-08-14T02:31:54.344Z,14.08
2022-08-14T02:32:54.494Z,14.24
2022-08-14T02:33:54.648Z,13.599999
2022-08-14T02:34:54.785Z,14
2022-08-14T02:35:57.905Z,14.08
2022-08-14T02:37:03.343Z,14.08
2022-08-14T02:37:55.200Z,14.24
2022-08-14T02:38:55.311Z,14.08
2022-08-14T02:39:55.473Z,14.24
2022-08-14T02:40:55.638Z,14.24
2022-08-14T02:41:58.057Z,14.08
2022-08-14T02:42:57.577Z,14.24
2022-08-14T02:44:00.763Z,14.24
2022-08-14T02:44:56.165Z,14.08
2022-08-14T02:45:56.267Z,14.08
2022-08-14T02:47:01.089Z,14.24
2022-08-14T02:47:57.373Z,14.24
2022-08-14T02:49:02.284Z,14.24
2022-08-14T02:49:57.020Z,14.24
2022-08-14T02:50:56.882Z,14.32
2022-08-14T02:51:56.985Z,14.08
2022-08-14T02:53:02.927Z,14.32
2022-08-14T02:53:57.182Z,14.32
2022-08-14T02:54:57.339Z,14.24
2022-08-14T02:56:02.789Z,14.32
2022-08-14T02:57:14.517Z,14.32
2022-08-14T02:57:58.354Z,14.24
2022-08-14T02:59:00.333Z,14.08
2022-08-14T02:59:57.948Z,14.32
2022-08-14T03:00:58.255Z,14.24
2022-08-14T03:01:58.321Z,14.24
2022-08-14T03:02:59.251Z,14.32
2022-08-14T03:03:58.452Z,14.32
2022-08-14T03:04:58.584Z,14.32
2022-08-14T03:05:58.658Z,14.24
2022-08-14T03:07:06.834Z,14.32
2022-08-14T03:07:58.909Z,14.32
2022-08-14T03:08:59.038Z,14.48
2022-08-14T03:10:24.909Z,14.48
2022-08-14T03:10:59.220Z,14.32
2022-08-14T03:11:59.318Z,14.24
2022-08-14T03:12:59.422Z,14.24
2022-08-14T03:13:59.575Z,14.24
2022-08-14T03:14:59.686Z,14.24
2022-08-14T03:15:59.776Z,14.24
2022-08-14T03:16:59.880Z,14.32
2022-08-14T03:17:59.980Z,14.4
2022-08-14T03:19:00.079Z,14.48
2022-08-14T03:20:00.238Z,14.48
2022-08-14T03:21:00.383Z,14.4
2022-08-14T03:22:00.484Z,14.48
2022-08-14T03:23:00.609Z,14.48
2022-08-14T03:24:00.689Z,14.639999
2022-08-14T03:25:00.791Z,14.719999
2022-08-14T03:26:00.942Z,14.719999
2022-08-14T03:27:01.051Z,14.719999
2022-08-14T03:28:02.732Z,14.719999
2022-08-14T03:29:01.529Z,14.639999
2022-08-14T03:30:01.453Z,14.639999
2022-08-14T03:31:01.610Z,14.639999
2022-08-14T03:32:01.759Z,14.639999
2022-08-14T03:33:01.939Z,14.639999
2022-08-14T03:34:02.057Z,14.639999
2022-08-14T03:35:02.208Z,14.639999
2022-08-14T03:36:07.864Z,14.48
2022-08-14T03:39:11.488Z,14.24
2022-08-14T03:40:02.813Z,14.08
2022-08-14T03:41:02.874Z,14.24
2022-08-14T03:42:03.051Z,14.08
2022-08-14T03:43:03.197Z,14.4
2022-08-14T03:45:18.265Z,14.32
2022-08-14T03:46:03.584Z,14.48
2022-08-14T03:47:03.689Z,14.48
2022-08-14T03:48:03.786Z,14.4
2022-08-14T03:49:03.919Z,14.639999
2022-08-14T03:50:03.993Z,14.48
2022-08-14T03:51:04.102Z,14.639999
2022-08-14T03:52:04.246Z,14.639999
2022-08-14T03:53:04.503Z,14.48
2022-08-14T03:54:04.543Z,14.32
2022-08-14T03:55:04.713Z,14.32
2022-08-14T03:56:04.750Z,14.4
2022-08-14T03:57:04.900Z,14.4
2022-08-14T03:58:05.058Z,14.32
2022-08-14T03:59:05.162Z,14.24
2022-08-14T04:00:05.309Z,14.32
2022-08-14T04:01:06.242Z,14.24
2022-08-14T04:02:09.502Z,14.32
2022-08-14T04:03:05.665Z,14.32
2022-08-14T04:04:05.820Z,14.24
2022-08-14T04:05:08.291Z,14.24
2022-08-14T04:06:06.122Z,14.24
2022-08-14T04:07:06.274Z,14.32
2022-08-14T04:08:08.715Z,14.24
2022-08-14T04:09:06.479Z,14.32
2022-08-14T04:10:06.586Z,14.4
2022-08-14T04:11:07.901Z,14.4
2022-08-14T04:12:08.387Z,14.32
2022-08-14T04:13:07.618Z,14.32
2022-08-14T04:14:07.117Z,14.24
2022-08-14T04:15:07.236Z,14.24
2022-08-14T04:16:10.366Z,14.32
2022-08-14T04:17:09.815Z,14.32
2022-08-14T04:18:07.646Z,14.24
2022-08-14T04:19:07.790Z,14.32
2022-08-14T04:20:07.950Z,14.32
2022-08-14T04:21:08.099Z,14.32
2022-08-14T04:22:08.198Z,14.24
2022-08-14T04:23:08.303Z,14.32
2022-08-14T04:24:08.437Z,14.4
2022-08-14T04:25:08.515Z,14.48
2022-08-14T04:26:08.658Z,14.719999
2022-08-14T04:27:09.509Z,14.719999
2022-08-14T04:28:08.912Z,14.799999
2022-08-14T04:29:14.521Z,14.719999
2022-08-14T04:30:09.219Z,14.88
2022-08-14T04:31:09.365Z,15.12
2022-08-14T04:32:57.214Z,15.2
2022-08-14T04:33:17.042Z,15.44
2022-08-14T04:34:11.153Z,15.44
2022-08-14T04:35:10.489Z,15.44
2022-08-14T04:36:10.081Z,15.52
2022-08-14T04:37:10.631Z,15.599999
2022-08-14T04:38:36.246Z,15.679999
2022-08-14T04:39:12.031Z,15.839999
2022-08-14T04:40:10.534Z,15.92
2022-08-14T04:41:10.636Z,15.92
2022-08-14T04:42:12.277Z,16
2022-08-14T04:43:13.141Z,16
2022-08-14T04:44:13.483Z,16
2022-08-14T04:45:11.048Z,15.839999
2022-08-14T04:46:54.665Z,15.679999
2022-08-14T04:47:11.250Z,15.44
2022-08-14T04:48:12.592Z,15.44
2022-08-14T04:49:11.580Z,15.44
2022-08-14T04:50:11.658Z,15.28
2022-08-14T04:51:11.844Z,15.2
2022-08-14T04:52:15.319Z,15.12
2022-08-14T04:53:12.117Z,15.04
2022-08-14T04:54:12.292Z,15.12
2022-08-14T04:55:12.420Z,15.04
2022-08-14T04:56:30.294Z,15.04
2022-08-14T04:57:12.627Z,15.12
2022-08-14T04:58:21.367Z,15.12
2022-08-14T04:59:12.880Z,15.12
2022-08-14T05:00:16.075Z,15.2
2022-08-14T05:01:19.434Z,15.2
2022-08-14T05:02:13.301Z,15.44
2022-08-14T05:03:13.379Z,15.44
2022-08-14T05:04:14.536Z,15.44
2022-08-14T05:05:13.635Z,15.52
2022-08-14T05:06:34.814Z,15.679999
2022-08-14T05:07:13.894Z,15.839999
2022-08-14T05:08:31.484Z,16.08
2022-08-14T05:09:14.555Z,16.24
2022-08-14T05:10:16.588Z,16.32
2022-08-14T05:11:14.413Z,16.32
2022-08-14T05:13:08.400Z,16.72
2022-08-14T05:13:15.657Z,17.04
2022-08-14T05:14:17.428Z,17.2
2022-08-14T05:15:14.765Z,17.44
2022-08-14T05:16:14.913Z,17.68
2022-08-14T05:17:15.011Z,17.92
2022-08-14T05:18:17.178Z,17.92
2022-08-14T05:19:19.288Z,18.08
2022-08-14T05:21:04.054Z,18.4
2022-08-14T05:22:18.914Z,18.4
2022-08-14T05:23:15.720Z,18.08
2022-08-14T05:24:17.606Z,18.32
2022-08-14T05:25:15.973Z,18.48
2022-08-14T05:26:16.078Z,19.04
2022-08-14T05:27:16.225Z,19.2
2022-08-14T05:28:16.618Z,19.2
2022-08-14T05:29:16.482Z,19.44
2022-08-14T05:30:16.747Z,19.2
2022-08-14T05:31:16.732Z,19.12
2022-08-14T05:32:16.836Z,19.12
2022-08-14T05:33:16.988Z,19.28
2022-08-14T05:34:17.092Z,19.6
2022-08-14T05:35:17.240Z,19.68
2022-08-14T05:36:17.348Z,19.68
2022-08-14T05:37:17.448Z,19.68
2022-08-14T05:38:22.168Z,19.92
2022-08-14T05:39:17.673Z,19.92
2022-08-14T05:40:17.805Z,20.24
2022-08-14T05:41:17.906Z,20.4
2022-08-14T05:42:21.421Z,20.4
2022-08-14T05:43:18.166Z,20.4
2022-08-14T05:44:18.297Z,20.4
2022-08-14T05:45:18.363Z,20.64
2022-08-14T05:46:18.461Z,20.88
2022-08-14T05:47:18.614Z,20.88
2022-08-14T05:48:23.342Z,20.88
2022-08-14T05:49:18.822Z,20.88
2022-08-14T05:50:19.642Z,21.52
2022-08-14T05:51:19.072Z,21.6
2022-08-14T05:52:26.289Z,21.6
2022-08-14T05:53:19.277Z,21.52
2022-08-14T05:54:26.816Z,21.28
2022-08-14T05:55:22.320Z,21.2
2022-08-14T05:56:19.659Z,21.04
2022-08-14T05:57:19.736Z,21.44
2022-08-14T05:58:19.887Z,21.6
2022-08-14T05:59:19.991Z,21.84
2022-08-14T06:00:24.659Z,21.84
2022-08-14T06:01:20.253Z,22.08
2022-08-14T06:02:21.795Z,22.64
2022-08-14T06:03:20.545Z,23.04
2022-08-14T06:04:20.646Z,22.72
2022-08-14T06:05:23.111Z,22.8
2022-08-14T06:06:20.900Z,22.88
2022-08-14T06:07:21.052Z,22.64
2022-08-14T06:08:21.858Z,22.88
2022-08-14T06:09:21.307Z,22.4
2022-08-14T06:10:21.466Z,23.12
2022-08-14T06:11:23.806Z,23.2
2022-08-14T06:12:31.209Z,23.44
2022-08-14T06:13:21.825Z,23.28
2022-08-14T06:14:23.904Z,23.12
2022-08-14T06:15:24.198Z,22.64
2022-08-14T06:16:22.125Z,22.8
2022-08-14T06:17:25.744Z,23.12
2022-08-14T06:18:22.378Z,23.52
2022-08-14T06:19:23.316Z,23.6
2022-08-14T06:20:22.582Z,23.6
2022-08-14T06:21:22.946Z,23.68
2022-08-14T06:22:22.788Z,24.08
2022-08-14T06:23:22.885Z,24
2022-08-14T06:24:23.031Z,24.48
2022-08-14T06:25:23.189Z,24.72
2022-08-14T06:26:30.101Z,25.12
2022-08-14T06:27:23.491Z,25.04
2022-08-14T06:28:27.066Z,24.88
2022-08-14T06:29:23.771Z,25.12
2022-08-14T06:30:23.799Z,25.12
2022-08-14T06:31:23.902Z,25.52
2022-08-14T06:32:37.018Z,26
2022-08-14T06:33:24.204Z,26.64
2022-08-14T06:35:24.465Z,25.6
2022-08-14T06:36:24.558Z,25.52
2022-08-14T06:37:24.778Z,25.84
2022-08-14T06:38:24.863Z,25.6
2022-08-14T06:39:36.227Z,25.2
2022-08-14T06:40:25.409Z,24.8
2022-08-14T06:41:52.726Z,25.12
2022-08-14T06:42:32.325Z,25.28
2022-08-14T06:43:29.871Z,25.52
2022-08-14T06:44:30.461Z,25.92
2022-08-14T06:45:26.048Z,26.4
2022-08-14T06:46:32.329Z,26.48
2022-08-14T06:47:25.978Z,26.72
2022-08-14T06:48:26.082Z,26.88
2022-08-14T06:49:26.220Z,26.8
2022-08-14T06:50:27.901Z,26.72
2022-08-14T06:51:26.386Z,26.72
2022-08-14T06:52:26.539Z,27.2
2022-08-14T06:53:27.454Z,25.52
2022-08-14T06:54:31.088Z,25.84
2022-08-14T06:55:28.071Z,25.84
2022-08-14T06:56:27.057Z,25.84
2022-08-14T06:57:27.199Z,26.4
2022-08-14T06:58:29.066Z,26.48
2022-08-14T06:59:27.452Z,26.24
2022-08-14T07:00:30.426Z,25.6
2022-08-14T07:01:28.097Z,26.48
2022-08-14T07:02:34.955Z,26.32
2022-08-14T07:03:27.965Z,26.72
2022-08-14T07:04:28.120Z,26.8
2022-08-14T07:05:28.263Z,27.04
2022-08-14T07:06:45.444Z,26.88
2022-08-14T07:07:28.612Z,26.08
2022-08-14T07:08:28.793Z,26
2022-08-14T07:09:40.438Z,25.68
2022-08-14T07:10:28.875Z,26.48
2022-08-14T07:11:28.976Z,26.88
2022-08-14T07:12:34.740Z,27.12
2022-08-14T07:13:30.372Z,26
2022-08-14T07:14:29.278Z,25.28
2022-08-14T07:15:29.469Z,25.44
2022-08-14T07:16:29.536Z,25.84
2022-08-14T07:17:31.892Z,26.4
2022-08-14T07:18:29.743Z,26.08
2022-08-14T07:19:29.837Z,25.6
2022-08-14T07:20:30.512Z,26.08
2022-08-14T07:21:30.093Z,25.52
2022-08-14T07:22:32.834Z,25.52
2022-08-14T07:23:31.251Z,25.68
2022-08-14T07:24:31.218Z,24.72
2022-08-14T07:25:32.439Z,25.12
2022-08-14T07:26:30.709Z,25.52
2022-08-14T07:27:33.519Z,26.08
2022-08-14T07:28:30.960Z,26
2022-08-14T07:29:31.056Z,25.84
2022-08-14T07:30:33.498Z,25.2
2022-08-14T07:31:31.266Z,24.72
2022-08-14T07:32:33.945Z,24.8
2022-08-14T07:33:31.519Z,24.88
2022-08-14T07:34:36.754Z,25.04
2022-08-14T07:35:37.415Z,24.4
2022-08-14T07:36:31.870Z,24.48
2022-08-14T07:37:31.974Z,25.52
2022-08-14T07:38:36.432Z,26.48
2022-08-14T07:39:34.385Z,26.48
2022-08-14T07:40:32.328Z,26.32
2022-08-14T07:41:34.255Z,26.48
2022-08-14T07:42:32.633Z,27.2
2022-08-14T07:43:32.738Z,27.04
2022-08-14T07:44:36.031Z,26.72
2022-08-14T07:45:33.055Z,26.88
2022-08-14T07:46:33.091Z,26.4
2022-08-14T07:47:33.247Z,26.4
2022-08-14T07:48:33.344Z,27.92
2022-08-14T07:49:33.447Z,26.72
2022-08-14T07:50:34.385Z,26.64
2022-08-14T07:51:34.608Z,25.92
2022-08-14T07:52:33.805Z,26.24
2022-08-14T07:53:34.040Z,26.64
2022-08-14T07:54:34.056Z,27.2
2022-08-14T07:55:34.164Z,27.44
2022-08-14T07:56:44.606Z,27.28
2022-08-14T07:57:34.414Z,27.44
2022-08-14T07:58:38.594Z,27.44
2022-08-14T07:59:41.694Z,27.84
2022-08-14T08:00:34.722Z,27.84
2022-08-14T08:01:34.869Z,28
2022-08-14T08:02:35.029Z,27.6
2022-08-14T08:03:35.140Z,27.68
2022-08-14T08:04:35.180Z,26.88
2022-08-14T08:05:35.286Z,27.28
2022-08-14T08:06:35.432Z,27.68
2022-08-14T08:07:35.552Z,26.8
2022-08-14T08:08:35.692Z,26.8
2022-08-14T08:09:35.786Z,27.2
2022-08-14T08:10:46.480Z,27.28
2022-08-14T08:11:37.247Z,27.04
2022-08-14T08:12:36.196Z,27.2
2022-08-14T08:13:39.329Z,27.44
2022-08-14T08:14:55.986Z,27.52
2022-08-14T08:15:36.599Z,27.2
2022-08-14T08:16:36.697Z,27.92
2022-08-14T08:17:38.055Z,27.6
2022-08-14T08:18:36.905Z,27.68
2022-08-14T08:19:37.082Z,28.32
2022-08-14T08:20:37.216Z,28.24
2022-08-14T08:21:37.347Z,27.44
2022-08-14T08:22:37.411Z,26.72
2022-08-14T08:23:40.944Z,26.88
2022-08-14T08:24:37.664Z,27.28
2022-08-14T08:25:39.940Z,27.28
2022-08-14T08:26:37.866Z,28.24
2022-08-14T08:27:37.977Z,28.72
2022-08-14T08:28:38.073Z,29.52
2022-08-14T08:29:38.227Z,29.28
2022-08-14T08:30:38.376Z,28.4
2022-08-14T08:31:38.526Z,29.2
2022-08-14T08:32:38.634Z,29.04
2022-08-14T08:33:38.784Z,28
2022-08-14T08:34:38.884Z,27.92
2022-08-14T08:35:46.098Z,28.48
2022-08-14T08:36:39.090Z,29.92
2022-08-14T08:37:40.108Z,29.52
2022-08-14T08:39:14.370Z,30.32
2022-08-14T08:40:01.321Z,30.32
2022-08-14T08:40:42.125Z,30.8
2022-08-14T08:41:39.752Z,30.64
2022-08-14T08:42:41.531Z,29.52
2022-08-14T08:43:45.970Z,28.64
2022-08-14T08:44:40.100Z,28
2022-08-14T08:45:40.206Z,28.88
2022-08-14T08:46:40.306Z,31.04
2022-08-14T08:47:40.465Z,31.52
2022-08-14T08:48:46.781Z,30.72
2022-08-14T08:49:42.253Z,30
2022-08-14T08:51:42.982Z,30.4
2022-08-14T08:52:41.109Z,29.84
2022-08-14T08:53:41.176Z,29.68
2022-08-14T08:54:41.325Z,30.8
2022-08-14T08:55:42.344Z,30.8
2022-08-14T08:56:42.156Z,30.64
2022-08-14T08:57:41.679Z,30.88
2022-08-14T08:58:41.781Z,30
2022-08-14T08:59:42.015Z,29.12
2022-08-14T09:00:42.937Z,28.32
2022-08-14T09:01:42.135Z,29.12
2022-08-14T09:02:42.235Z,28.48
2022-08-14T09:03:44.080Z,28.48
2022-08-14T09:04:45.141Z,29.28
2022-08-14T09:05:42.598Z,28.64
2022-08-14T09:07:01.527Z,28.08
2022-08-14T09:07:42.919Z,27.84
2022-08-14T09:08:43.019Z,27.68
2022-08-14T09:09:53.791Z,28.24
2022-08-14T09:10:43.279Z,28.24
2022-08-14T09:11:43.354Z,28.4
2022-08-14T09:12:46.561Z,28.48
2022-08-14T09:13:43.619Z,29.52
2022-08-14T09:14:43.876Z,28.48
2022-08-14T09:15:43.770Z,29.44
2022-08-14T09:16:47.836Z,29.92
2022-08-14T09:17:44.021Z,29.84
2022-08-14T09:18:44.143Z,29.6
2022-08-14T09:19:44.218Z,29.44
2022-08-14T09:20:44.323Z,28.88
2022-08-14T09:21:44.422Z,28.32
2022-08-14T09:22:47.943Z,28.72
2022-08-14T09:24:27.797Z,29.6
2022-08-14T09:24:45.697Z,29.2
2022-08-14T09:25:59.185Z,29.04
2022-08-14T09:26:49.077Z,29.68
2022-08-14T09:27:45.138Z,30.48
2022-08-14T09:28:45.243Z,30.8
2022-08-14T09:29:45.349Z,30.32
2022-08-14T09:30:45.653Z,32.24
2022-08-14T09:31:49.170Z,31.68
2022-08-14T09:32:58.390Z,32.24
2022-08-14T09:33:56.200Z,30.48
2022-08-14T09:34:47.528Z,30
2022-08-14T09:35:46.065Z,31.04
2022-08-14T09:36:46.192Z,31.2
2022-08-14T09:37:46.315Z,30.64
2022-08-14T09:38:46.410Z,32.24
2022-08-14T09:39:46.543Z,33.44
2022-08-14T09:40:47.666Z,32.88
2022-08-14T09:42:18.086Z,31.04
2022-08-14T09:42:50.286Z,30.4
2022-08-14T09:43:48.823Z,29.68
2022-08-14T09:44:49.602Z,29.6
2022-08-14T09:45:52.685Z,29.44
2022-08-14T09:46:49.822Z,30.72
2022-08-14T09:47:49.044Z,30.32
2022-08-14T09:48:47.498Z,31.6
2022-08-14T09:49:53.000Z,31.84
2022-08-14T09:50:47.728Z,32.72
2022-08-14T09:51:51.986Z,32.48
2022-08-14T09:52:49.589Z,32.48
2022-08-14T09:54:13.328Z,32.32
2022-08-14T09:54:48.248Z,33.04
2022-08-14T09:55:48.342Z,30.4
2022-08-14T09:56:51.757Z,31.04
2022-08-14T09:57:48.598Z,30
2022-08-14T09:58:48.780Z,30.8
2022-08-14T09:59:50.259Z,32.8
2022-08-14T10:00:49.046Z,33.12
2022-08-14T10:01:52.537Z,33.04
2022-08-14T10:02:49.452Z,33.68
2022-08-14T10:03:49.358Z,33.2
2022-08-14T10:04:49.892Z,32
2022-08-14T10:05:49.610Z,33.44
2022-08-14T10:06:49.731Z,32.56
2022-08-14T10:07:49.860Z,33.28
2022-08-14T10:08:50.764Z,34.48
2022-08-14T10:09:57.905Z,32.72
2022-08-14T10:10:51.901Z,32.56
2022-08-14T10:11:50.375Z,32.08
2022-08-14T10:12:53.304Z,31.52
2022-08-14T10:13:53.054Z,30.48
2022-08-14T10:14:53.196Z,30.64
2022-08-14T10:15:50.779Z,30.88
2022-08-14T10:16:50.878Z,30.8
2022-08-14T10:17:51.030Z,31.44
2022-08-14T10:18:51.171Z,31.28
2022-08-14T10:19:51.236Z,31.68
2022-08-14T10:20:51.334Z,32
2022-08-14T10:21:58.948Z,31.92
2022-08-14T10:23:51.694Z,32.08
2022-08-14T10:24:51.790Z,31.28
2022-08-14T10:25:52.902Z,31.12
2022-08-14T10:26:51.996Z,30.88
2022-08-14T10:27:56.919Z,31.52
2022-08-14T10:29:04.174Z,31.44
2022-08-14T10:29:52.364Z,32.56
2022-08-14T10:30:52.456Z,33.04
2022-08-14T10:31:52.560Z,33.68
2022-08-14T10:32:52.736Z,33.6
2022-08-14T10:33:52.816Z,34.4
2022-08-14T10:34:53.110Z,34
2022-08-14T10:35:53.068Z,31.12
2022-08-14T10:37:02.093Z,30.32
2022-08-14T10:37:53.271Z,31.52
2022-08-14T10:38:53.403Z,31.28
2022-08-14T10:40:01.481Z,31.28
2022-08-14T10:40:59.254Z,30.8
2022-08-14T10:41:54.262Z,31.68
2022-08-14T10:42:53.906Z,32.08
2022-08-14T10:43:53.986Z,32.72
2022-08-14T10:44:54.084Z,32.88
2022-08-14T10:46:00.091Z,32.88
2022-08-14T10:46:59.382Z,33.92
2022-08-14T10:48:08.490Z,32.48
2022-08-14T10:48:54.642Z,34.4
2022-08-14T10:49:54.793Z,35.28
2022-08-14T10:50:54.895Z,34.88
2022-08-14T10:51:55.041Z,33.44
2022-08-14T10:52:55.146Z,31.52
2022-08-14T10:53:56.699Z,30.24
2022-08-14T10:54:56.268Z,31.84
2022-08-14T10:55:55.553Z,32.72
2022-08-14T10:56:55.655Z,33.2
2022-08-14T10:57:55.775Z,33.92
2022-08-14T10:58:55.895Z,35.12
2022-08-14T10:59:56.026Z,34.4
2022-08-14T11:00:56.746Z,34.4
2022-08-14T11:01:56.317Z,35.2
2022-08-14T11:02:56.765Z,34.56
2022-08-14T11:03:57.263Z,34.72
2022-08-14T11:05:00.672Z,32.72
2022-08-14T11:05:56.850Z,33.68
2022-08-14T11:06:57.012Z,33.84
2022-08-14T11:07:57.250Z,32.88
2022-08-14T11:08:57.228Z,32.72
2022-08-14T11:09:57.341Z,32.08
2022-08-14T11:10:57.430Z,31.6
2022-08-14T11:12:33.058Z,31.92
2022-08-14T11:12:57.711Z,32.56
2022-08-14T11:13:57.833Z,31.6
2022-08-14T11:14:59.072Z,31.6
2022-08-14T11:15:58.045Z,31.6
2022-08-14T11:16:58.143Z,31.12
2022-08-14T11:18:01.086Z,32.08
2022-08-14T11:18:59.625Z,33.12
2022-08-14T11:19:58.550Z,32.32
2022-08-14T11:20:58.750Z,32.72
2022-08-14T11:21:58.852Z,31.04
2022-08-14T11:22:59.004Z,31.68
2022-08-14T11:23:59.104Z,34.32
2022-08-14T11:24:59.206Z,34.72
2022-08-14T11:25:59.308Z,32.24
2022-08-14T11:26:59.441Z,31.6
2022-08-14T11:27:59.512Z,31.6
2022-08-14T11:28:59.897Z,33.52
2022-08-14T11:30:00.472Z,33.84
2022-08-14T11:30:59.915Z,33.92
2022-08-14T11:32:00.037Z,33.44
2022-08-14T11:33:00.233Z,33.04
2022-08-14T11:34:00.275Z,32
2022-08-14T11:35:00.376Z,31.92
2022-08-14T11:36:00.504Z,33.2
2022-08-14T11:37:02.979Z,34.08
2022-08-14T11:38:00.732Z,33.6
2022-08-14T11:39:00.838Z,32.4
2022-08-14T11:40:01.037Z,31.92
2022-08-14T11:41:01.257Z,31.84
2022-08-14T11:42:01.324Z,32.24
2022-08-14T11:43:01.390Z,33.2
2022-08-14T11:44:01.499Z,32.48
2022-08-14T11:45:01.603Z,32.32
2022-08-14T11:46:03.473Z,32.4
2022-08-14T11:47:06.014Z,31.52
2022-08-14T11:48:10.980Z,31.68
2022-08-14T11:49:05.027Z,32.88
2022-08-14T11:50:02.114Z,32.24
2022-08-14T11:51:02.206Z,32.8
2022-08-14T11:52:02.308Z,31.04
2022-08-14T11:53:04.362Z,30.72
2022-08-14T11:54:02.562Z,31.52
2022-08-14T11:55:02.663Z,33.52
2022-08-14T11:56:03.758Z,33.6
2022-08-14T11:57:04.515Z,32.88
2022-08-14T11:58:02.976Z,32
2022-08-14T11:59:03.078Z,33.12
2022-08-14T12:00:03.232Z,32.4
2022-08-14T12:01:03.375Z,34.24
2022-08-14T12:02:03.528Z,34.32
2022-08-14T12:03:04.430Z,32.8
2022-08-14T12:04:03.797Z,33.52
2022-08-14T12:05:04.465Z,34.56
2022-08-14T12:06:04.038Z,35.6
2022-08-14T12:07:04.137Z,34
2022-08-14T12:08:05.881Z,33.12
2022-08-14T12:09:04.426Z,33.6
2022-08-14T12:10:25.854Z,33.52
2022-08-14T12:11:04.601Z,34
2022-08-14T12:12:04.745Z,33.92
2022-08-14T12:13:04.925Z,34.48
2022-08-14T12:14:05.048Z,33.68
2022-08-14T12:15:05.206Z,34
2022-08-14T12:16:06.352Z,35.04
2022-08-14T12:17:05.462Z,35.44
2022-08-14T12:18:05.609Z,34.08
2022-08-14T12:19:05.719Z,34.48
2022-08-14T12:20:05.920Z,34.8
2022-08-14T12:21:05.924Z,34.56
2022-08-14T12:22:06.660Z,32.08
2022-08-14T12:23:06.170Z,32.4
2022-08-14T12:24:06.270Z,32.08
2022-08-14T12:25:10.867Z,32.24
2022-08-14T12:26:12.291Z,33.92
2022-08-14T12:27:06.591Z,35.28
2022-08-14T12:28:06.811Z,35.2
2022-08-14T12:29:06.906Z,35.12
2022-08-14T12:30:06.936Z,35.68
2022-08-14T12:31:07.083Z,35.68
2022-08-14T12:32:09.071Z,34.24
2022-08-14T12:33:07.356Z,34.48
2022-08-14T12:34:08.815Z,34.88
2022-08-14T12:35:07.492Z,34.48
2022-08-14T12:36:07.640Z,35.2
2022-08-14T12:37:07.749Z,35.2
2022-08-14T12:38:07.859Z,34.32
2022-08-14T12:39:08.003Z,34.88
2022-08-14T12:40:08.173Z,34.4
2022-08-14T12:41:08.256Z,34.48
2022-08-14T12:42:08.406Z,34
2022-08-14T12:43:08.514Z,33.28
2022-08-14T12:44:08.664Z,33.52
2022-08-14T12:45:08.764Z,34.4
2022-08-14T12:46:08.862Z,34.32
2022-08-14T12:47:09.015Z,34.08
2022-08-14T12:48:20.976Z,34.08
2022-08-14T12:49:09.270Z,34.24
2022-08-14T12:50:09.424Z,32.88
2022-08-14T12:51:09.527Z,32.48
2022-08-14T12:52:17.102Z,31.68
2022-08-14T12:53:14.399Z,32.08
2022-08-14T12:54:09.876Z,32.8
2022-08-14T12:55:09.983Z,31.68
2022-08-14T12:56:18.153Z,31.92
2022-08-14T12:57:10.443Z,31.28
2022-08-14T12:58:28.657Z,31.12
2022-08-14T12:59:10.443Z,30.4
2022-08-14T13:00:22.386Z,30.64